Time;durP1;ratioP1;P1;durP2;ratioP2;P2;SDS_P1;SDS_P2;PMS_P1;PMS_P2;Temp;Humidity;BMP_temperature;BMP_pressure;BME280_temperature;BME280_humidity;BME280_pressure;Samples;Min_cycle;Max_cycle;Signal;HPM_P1;HPM_P2
2022/06/19 00:00:41;;;;;;;5.85;3.90;;;;;;;14.27;96.36;97300.97;5026803;28;20049;-59
2022/06/19 00:03:14;;;;;;;6.07;3.70;;;;;;;14.80;96.83;97389.31;5025010;28;20494;-60
2022/06/19 00:05:41;;;;;;;5.00;3.95;;;;;;;14.82;97.46;97394.50;5026856;28;20415;-60
2022/06/19 00:08:08;;;;;;;8.25;3.88;;;;;;;14.89;96.42;97389.78;5025221;28;20053;-60
2022/06/19 00:10:34;;;;;;;4.82;3.45;;;;;;;14.36;95.90;97304.19;5026251;28;20053;-61
2022/06/19 00:13:01;;;;;;;4.00;3.60;;;;;;;14.82;97.13;97388.94;5024923;28;20060;-62
2022/06/19 00:15:28;;;;;;;4.05;3.10;;;;;;;14.73;97.47;97391.28;5026225;28;20447;-60
2022/06/19 00:17:55;;;;;;;7.53;3.88;;;;;;;14.69;97.44;97384.88;5026506;28;20239;-60
2022/06/19 00:20:22;;;;;;;5.88;4.03;;;;;;;14.17;97.63;97307.22;5024754;28;20056;-61
2022/06/19 00:22:48;;;;;;;4.32;3.90;;;;;;;14.35;96.38;97336.06;5024724;28;20065;-60
2022/06/19 00:25:15;;;;;;;5.90;3.90;;;;;;;14.38;97.36;97340.84;5024794;28;20494;-61
2022/06/19 00:27:42;;;;;;;6.15;3.88;;;;;;;14.61;98.35;97394.38;5024907;28;20057;-61
2022/06/19 00:30:11;;;;;;;5.57;3.67;;;;;;;14.66;96.31;97388.44;5025740;28;20065;-61
2022/06/19 00:32:38;;;;;;;7.25;3.80;;;;;;;13.79;96.84;97274.31;5026234;28;20068;-60
2022/06/19 00:35:05;;;;;;;5.68;3.88;;;;;;;14.05;97.53;97315.91;5024696;28;20054;-60
2022/06/19 00:37:34;;;;;;;8.23;4.13;;;;;;;14.24;98.42;97358.25;5024211;28;20064;-60
2022/06/19 00:40:04;;;;;;;5.03;3.90;;;;;;;14.39;98.17;97381.47;5025952;28;20178;-60
2022/06/19 00:42:30;;;;;;;6.20;3.88;;;;;;;14.40;97.93;97383.88;5025846;28;20069;-60
2022/06/19 00:44:57;;;;;;;5.13;3.90;;;;;;;14.25;98.65;97373.00;5025710;28;20087;-60
2022/06/19 00:47:33;;;;;;;5.22;4.25;;;;;;;14.31;98.68;97386.19;5024461;28;20053;-60
2022/06/19 00:50:06;;;;;;;4.85;3.75;;;;;;;14.06;98.53;97339.78;5025759;28;20053;-60
2022/06/19 00:52:38;;;;;;;7.35;3.88;;;;;;;14.24;98.16;97365.81;5025528;28;20057;-60
2022/06/19 00:55:10;;;;;;;8.38;3.78;;;;;;;14.28;98.53;97391.72;5025522;28;20057;-61
2022/06/19 00:57:40;;;;;;;5.10;3.80;;;;;;;14.33;99.00;97388.59;5025070;28;20061;-61
2022/06/19 01:00:12;;;;;;;5.55;3.95;;;;;;;14.39;98.21;97387.03;5023972;28;20057;-60
2022/06/19 01:02:41;;;;;;;5.78;3.90;;;;;;;14.41;97.32;97384.69;5025699;28;20053;-62
2022/06/19 01:05:11;;;;;;;8.07;4.00;;;;;;;14.00;96.95;97319.84;5025279;28;20053;-60
2022/06/19 01:07:40;;;;;;;6.43;4.03;;;;;;;14.40;97.04;97380.28;5025184;28;20064;-62
2022/06/19 01:10:07;;;;;;;5.38;4.30;;;;;;;14.38;96.83;97393.81;5025433;28;20069;-60
2022/06/19 01:12:35;;;;;;;7.95;3.83;;;;;;;13.94;97.89;97342.88;5023948;28;20057;-60
2022/06/19 01:15:06;;;;;;;7.40;4.60;;;;;;;14.23;99.36;97383.69;5025293;28;20061;-60
2022/06/19 01:17:34;;;;;;;7.28;4.18;;;;;;;13.67;98.98;97281.75;5023559;28;20054;-60
2022/06/19 01:20:04;;;;;;;7.25;4.35;;;;;;;14.27;98.44;97384.56;5005475;28;20517;-60
2022/06/19 01:22:53;;;;;;;5.25;4.15;;;;;;;14.32;97.80;97378.63;5005454;28;20052;-60
2022/06/19 01:25:29;;;;;;;4.47;3.45;;;;;;;14.03;97.92;97351.69;5004074;28;20091;-60
2022/06/19 01:30:50;;;;;;;4.03;3.20;;;;;;;14.13;98.50;97378.84;5005484;28;20061;-60
2022/06/19 01:33:21;;;;;;;5.47;4.07;;;;;;;13.62;99.08;97304.38;5005478;28;20485;-61
2022/06/19 01:35:50;;;;;;;7.28;3.95;;;;;;;14.18;98.40;97384.06;5005135;28;20524;-61
2022/06/19 01:38:20;;;;;;;4.65;3.70;;;;;;;14.05;98.38;97354.91;5005115;28;20054;-61
2022/06/19 01:40:51;;;;;;;5.18;3.30;;;;;;;14.22;96.66;97390.47;5004835;28;20099;-61
2022/06/19 01:43:20;;;;;;;4.63;3.25;;;;;;;13.48;97.40;97287.56;5003899;28;20083;-61
2022/06/19 01:45:52;;;;;;;4.28;3.40;;;;;;;13.19;97.62;97238.41;5004998;28;20057;-61
2022/06/19 01:48:22;;;;;;;4.53;3.13;;;;;;;13.81;97.33;97341.56;5003743;28;20061;-61
2022/06/19 01:50:50;;;;;;;4.75;3.88;;;;;;;13.73;98.24;97337.09;5004831;28;20476;-61
2022/06/19 01:53:21;;;;;;;6.30;4.10;;;;;;;14.06;97.99;97401.06;5003410;28;20053;-61
2022/06/19 01:55:49;;;;;;;4.03;3.70;;;;;;;14.08;98.47;97393.94;5004792;28;20060;-61
2022/06/19 01:58:19;;;;;;;4.90;3.97;;;;;;;14.00;97.98;97408.19;5003398;28;20533;-61
2022/06/19 02:00:48;;;;;;;5.63;3.55;;;;;;;14.00;97.16;97399.81;5003329;28;20698;-61
2022/06/19 02:03:32;;;;;;;5.65;3.80;;;;;;;13.90;97.18;97404.09;5005252;28;20081;-61
2022/06/19 02:05:59;;;;;;;4.53;3.05;;;;;;;13.84;97.80;97404.81;5004810;28;20058;-61
2022/06/19 02:08:29;;;;;;;5.53;4.00;;;;;;;13.73;98.86;97412.28;5004671;28;20053;-62
2022/06/19 02:10:57;;;;;;;5.55;3.55;;;;;;;13.67;98.52;97398.69;5004559;28;20050;-62
2022/06/19 02:13:24;;;;;;;4.90;3.40;;;;;;;13.29;98.89;97346.19;5005113;28;20515;-60
2022/06/19 02:15:53;;;;;;;5.47;3.83;;;;;;;13.61;99.47;97391.88;5005033;28;20057;-61
2022/06/19 02:18:28;;;;;;;7.55;3.72;;;;;;;13.65;99.79;97392.72;5010286;28;20084;-61
2022/06/19 02:20:54;;;;;;;7.95;4.32;;;;;;;13.70;98.56;97395.13;5023405;28;20594;-61
2022/06/19 02:23:30;;;;;;;6.20;3.72;;;;;;;13.68;99.32;97397.53;5024451;28;20511;-60
2022/06/19 02:25:57;;;;;;;6.00;3.88;;;;;;;13.79;98.48;97405.16;5023121;28;20091;-60
2022/06/19 02:28:25;;;;;;;4.20;3.13;;;;;;;13.77;99.32;97399.97;5024869;28;20054;-60
2022/06/19 02:30:54;;;;;;;4.07;3.20;;;;;;;13.68;98.31;97396.72;5022676;28;20519;-60
2022/06/19 02:33:26;;;;;;;5.72;3.60;;;;;;;13.61;99.08;97400.22;5022831;28;20128;-60
2022/06/19 02:35:53;;;;;;;4.27;3.10;;;;;;;12.32;97.88;97210.34;5022494;28;20057;-60
2022/06/19 02:38:21;;;;;;;4.38;3.40;;;;;;;13.06;99.10;97337.19;5024396;28;20058;-61
2022/06/19 02:41:15;;;;;;;5.93;3.55;;;;;;;13.07;99.34;97346.34;5024480;28;20055;-61
2022/06/19 02:43:42;;;;;;;6.00;3.42;;;;;;;13.44;99.50;97409.19;5024576;28;20058;-60
2022/06/19 02:46:08;;;;;;;4.65;3.33;;;;;;;12.99;99.09;97342.63;5023201;28;20504;-60
2022/06/19 02:48:35;;;;;;;7.35;4.75;;;;;;;12.78;100.00;97314.56;5024415;28;20145;-60
2022/06/19 02:51:04;;;;;;;4.80;3.63;;;;;;;12.75;100.00;97332.00;5023854;28;20053;-60
2022/06/19 02:53:31;;;;;;;3.95;3.00;;;;;;;13.43;99.94;97407.59;5023989;28;20049;-60
2022/06/19 02:55:58;;;;;;;4.03;3.30;;;;;;;12.85;99.61;97364.69;5023815;28;20053;-61
2022/06/19 02:58:25;;;;;;;4.63;3.22;;;;;;;13.13;99.28;97362.31;5022390;28;20488;-60
2022/06/19 03:00:52;;;;;;;4.00;2.83;;;;;;;13.42;98.88;97400.41;5022172;28;20072;-60
2022/06/19 03:03:32;;;;;;;4.00;3.38;;;;;;;13.35;99.72;97393.97;5023970;28;20050;-61
2022/06/19 03:05:59;;;;;;;5.38;2.97;;;;;;;13.42;98.95;97400.41;5023863;28;20053;-61
2022/06/19 03:08:25;;;;;;;5.13;3.03;;;;;;;13.50;98.81;97406.84;5023597;28;20053;-60
2022/06/19 03:10:52;;;;;;;7.10;3.47;;;;;;;13.44;98.92;97406.41;5023510;28;20053;-61
2022/06/19 03:13:21;;;;;;;4.53;3.05;;;;;;;12.87;98.87;97303.13;5023634;28;20060;-60
2022/06/19 03:15:59;;;;;;;7.05;3.70;;;;;;;13.35;98.34;97397.56;5023697;28;20060;-60
2022/06/19 03:18:26;;;;;;;5.63;3.10;;;;;;;13.58;98.62;97414.09;5018046;28;20065;-60
2022/06/19 03:20:53;;;;;;;5.72;3.00;;;;;;;13.27;97.23;97362.47;5003954;28;20054;-60
2022/06/19 03:23:19;;;;;;;4.45;3.17;;;;;;;13.53;97.49;97395.75;5006365;28;20060;-60
2022/06/19 03:25:46;;;;;;;6.40;3.17;;;;;;;13.65;97.15;97406.63;5007640;28;20061;-61
2022/06/19 03:28:13;;;;;;;4.50;3.05;;;;;;;13.77;97.15;97413.91;5007537;28;20061;-60
2022/06/19 03:30:39;;;;;;;6.25;3.55;;;;;;;13.62;96.46;97357.28;5005993;28;20454;-61
2022/06/19 03:33:06;;;;;;;12.60;3.85;;;;;;;13.41;95.24;97306.16;5007603;28;20061;-60
2022/06/19 03:35:33;;;;;;;4.65;3.45;;;;;;;14.17;95.49;97408.34;5006956;28;20535;-61
2022/06/19 03:38:00;;;;;;;7.30;4.47;;;;;;;14.03;94.34;97351.69;5005998;28;20058;-60
2022/06/19 03:40:27;;;;;;;3.70;2.72;;;;;;;14.33;94.38;97400.53;5007013;28;20551;-60
2022/06/19 03:42:53;;;;;;;4.53;3.40;;;;;;;14.36;93.85;97377.47;5006920;28;20050;-61
2022/06/19 03:45:20;;;;;;;4.85;3.25;;;;;;;13.73;92.08;97254.38;5007006;28;20069;-60
2022/06/19 03:47:47;;;;;;;5.03;2.72;;;;;;;14.59;92.67;97405.13;5006898;28;20046;-62
2022/06/19 03:50:17;;;;;;;4.32;2.95;;;;;;;14.72;91.36;97400.81;5007000;28;20434;-60
2022/06/19 03:52:44;;;;;;;2.80;2.38;;;;;;;14.47;92.52;97366.41;5006953;28;20069;-60
2022/06/19 03:55:12;;;;;;;3.28;2.80;;;;;;;14.37;92.24;97333.69;5006947;28;20050;-60
2022/06/19 03:57:39;;;;;;;5.78;2.78;;;;;;;14.84;92.70;97398.50;5005537;28;20174;-60
2022/06/19 04:00:08;;;;;;;3.97;2.55;;;;;;;14.57;92.42;97346.16;5007186;28;20064;-60
2022/06/19 04:02:35;;;;;;;4.40;2.50;;;;;;;15.17;90.14;97397.50;5006861;28;20052;-61
2022/06/19 04:05:02;;;;;;;3.42;2.25;;;;;;;14.91;90.42;97356.72;5005439;28;20089;-62
2022/06/19 04:07:29;;;;;;;3.10;2.80;;;;;;;15.33;90.35;97395.19;5005210;28;20069;-60
2022/06/19 04:09:59;;;;;;;5.40;2.90;;;;;;;15.57;89.90;97402.84;5006499;28;20396;-60
2022/06/19 04:12:26;;;;;;;3.63;2.97;;;;;;;15.32;89.13;97357.28;5006848;28;20058;-61
2022/06/19 04:14:53;;;;;;;5.75;3.50;;;;;;;15.59;87.49;97355.81;5006449;28;20497;-60
2022/06/19 04:17:20;;;;;;;4.28;2.95;;;;;;;16.01;86.82;97406.16;5006634;28;20062;-61
2022/06/19 04:19:48;;;;;;;3.20;2.80;;;;;;;16.00;86.06;97392.59;5022601;28;20153;-61
2022/06/19 04:22:15;;;;;;;4.32;2.63;;;;;;;16.10;85.97;97387.03;5016226;28;20049;-62
2022/06/19 04:24:42;;;;;;;4.13;3.05;;;;;;;16.43;84.96;97400.63;5028858;28;20057;-61
2022/06/19 04:27:09;;;;;;;6.80;3.75;;;;;;;16.26;86.65;97409.81;5046198;28;20056;-60
2022/06/19 04:29:36;;;;;;;4.18;3.33;;;;;;;16.12;86.45;97344.69;5045935;28;20057;-60
2022/06/19 04:32:04;;;;;;;3.92;3.10;;;;;;;16.05;86.82;97339.91;5044182;28;20049;-61
2022/06/19 04:34:31;;;;;;;5.00;3.72;;;;;;;16.06;85.68;97304.38;5044755;28;20103;-60
2022/06/19 04:36:57;;;;;;;7.97;4.07;;;;;;;16.33;85.29;97339.88;5045356;28;20448;-60
2022/06/19 04:39:24;;;;;;;4.72;3.70;;;;;;;16.98;85.47;97394.56;5046013;28;20083;-61
2022/06/19 04:41:51;;;;;;;7.00;3.63;;;;;;;16.60;82.95;97293.53;5045541;28;20060;-60
2022/06/19 04:44:18;;;;;;;6.68;3.50;;;;;;;17.05;81.44;97330.97;5045821;28;20048;-59
2022/06/19 04:46:45;;;;;;;6.72;3.50;;;;;;;17.69;81.72;97382.72;5045582;28;20503;-60
2022/06/19 04:49:14;;;;;;;4.22;3.22;;;;;;;17.87;80.95;97377.00;5045476;28;20057;-63
2022/06/19 04:51:41;;;;;;;7.22;3.60;;;;;;;17.83;80.47;97342.63;5060532;28;20144;-60
2022/06/19 04:54:08;;;;;;;6.72;3.50;;;;;;;18.34;79.95;97390.28;5045622;28;20060;-61
2022/06/19 04:56:35;;;;;;;4.05;2.72;;;;;;;18.47;79.76;97377.41;5043789;28;20128;-60
2022/06/19 04:59:03;;;;;;;3.63;2.70;;;;;;;18.56;79.19;97436.63;5045559;28;20049;-60
2022/06/19 05:01:33;;;;;;;3.63;2.95;;;;;;;18.54;78.18;97332.44;5043648;28;20451;-60
2022/06/19 05:04:06;;;;;;;5.00;3.00;;;;;;;19.09;77.45;97392.03;5045345;28;20049;-60
2022/06/19 05:06:33;;;;;;;;;;;;;;;19.33;76.38;97390.19;5045831;28;20311;-60
2022/06/19 05:09:01;;;;;;;3.72;2.50;;;;;;;19.58;73.13;97406.75;5043736;28;19925;-60
2022/06/19 05:11:31;;;;;;;2.33;2.13;;;;;;;19.68;71.54;97395.34;5043756;28;20057;-63
2022/06/19 05:13:58;;;;;;;5.05;2.70;;;;;;;19.94;70.97;97391.00;5045287;28;20496;-62
2022/06/19 05:16:25;;;;;;;7.07;2.38;;;;;;;20.21;69.61;97389.03;5045276;28;20049;-61
2022/06/19 05:18:54;;;;;;;3.47;2.65;;;;;;;19.64;66.47;97276.56;5043640;28;20057;-61
2022/06/19 05:21:26;;;;;;;4.63;2.45;;;;;;;20.51;66.46;97380.50;5045243;28;20053;-60
2022/06/19 05:23:54;;;;;;;3.35;2.70;;;;;;;20.80;64.96;97392.88;5043389;28;20049;-61
2022/06/19 05:26:27;;;;;;;5.00;3.05;;;;;;;20.91;60.83;97383.00;5044808;28;20072;-60
2022/06/19 05:28:56;;;;;;;3.15;2.85;;;;;;;21.24;59.32;97395.31;5045044;28;20055;-61
2022/06/19 05:31:24;;;;;;;5.63;3.40;;;;;;;21.10;58.06;97344.88;5044789;28;20079;-61
2022/06/19 05:33:52;;;;;;;5.28;3.33;;;;;;;21.54;57.97;97392.28;5045189;28;20901;-60
2022/06/19 05:36:20;;;;;;;4.75;3.30;;;;;;;21.69;57.84;97390.75;5045000;28;20071;-61
2022/06/19 05:38:47;;;;;;;7.78;3.67;;;;;;;21.77;57.45;97375.31;5045610;28;20090;-61
2022/06/19 05:41:14;;;;;;;4.97;3.53;;;;;;;22.08;56.94;97443.56;5044725;28;20053;-62
2022/06/19 05:43:40;;;;;;;5.25;3.85;;;;;;;22.22;55.18;97396.03;5044126;28;20523;-60
2022/06/19 05:46:14;;;;;;;4.63;3.92;;;;;;;22.31;55.75;97401.09;5042871;28;20063;-61
2022/06/19 05:48:41;;;;;;;;;;;;;;;22.41;56.32;97400.06;5045136;28;20179;-60
2022/06/19 05:51:17;;;;;;;4.95;3.38;;;;;;;22.51;56.59;97398.19;5044328;28;20493;-62
2022/06/19 05:53:49;;;;;;;6.50;3.40;;;;;;;22.25;53.97;97330.25;5025917;28;20060;-61
2022/06/19 05:56:16;;;;;;;3.47;2.75;;;;;;;21.97;56.59;97392.97;5055138;28;20056;-61
2022/06/19 05:58:43;;;;;;;3.50;3.08;;;;;;;22.07;55.58;97396.78;5043280;28;20049;-61
2022/06/19 06:01:11;;;;;;;3.55;2.97;;;;;;;21.79;55.42;97335.38;5042933;28;20060;-62
2022/06/19 06:03:38;;;;;;;5.65;3.00;;;;;;;21.57;55.40;97312.47;5044489;28;20049;-61
2022/06/19 06:06:11;;;;;;;4.13;2.72;;;;;;;22.21;53.59;97402.13;5044448;28;20148;-62
2022/06/19 06:08:38;;;;;;;4.22;2.38;;;;;;;21.87;54.07;97348.09;5044447;28;20151;-61
2022/06/19 06:11:06;;;;;;;3.35;2.38;;;;;;;22.39;54.00;97400.50;5043926;28;20053;-61
2022/06/19 06:13:33;;;;;;;4.10;2.65;;;;;;;22.19;55.93;97401.78;5043918;28;20053;-62
2022/06/19 06:16:00;;;;;;;3.03;2.78;;;;;;;22.51;54.28;97393.34;5042754;28;20053;-61
2022/06/19 06:18:28;;;;;;;4.65;2.83;;;;;;;22.44;54.38;97377.38;5059321;28;20049;-61
2022/06/19 06:21:08;;;;;;;3.45;2.20;;;;;;;22.82;51.75;97402.28;5044203;28;20552;-60
2022/06/19 06:23:34;;;;;;;2.80;2.60;;;;;;;23.01;50.17;97404.22;5044012;28;20252;-60
2022/06/19 06:26:04;;;;;;;3.50;3.03;;;;;;;22.71;50.67;97314.19;5042296;28;20416;-61
2022/06/19 06:28:32;;;;;;;5.43;2.70;;;;;;;22.70;49.32;97366.28;5044152;28;20049;-60
2022/06/19 06:30:59;;;;;;;3.17;2.35;;;;;;;22.63;49.13;97298.66;5043727;28;20067;-60
2022/06/19 06:33:25;;;;;;;3.97;2.90;;;;;;;23.49;47.80;97395.66;5042601;28;20048;-60
2022/06/19 06:35:52;;;;;;;3.67;2.25;;;;;;;22.93;46.44;97323.69;5047150;28;20060;-60
2022/06/19 06:38:19;;;;;;;4.15;2.25;;;;;;;23.44;46.29;97394.16;5042798;28;20492;-60
2022/06/19 06:40:46;;;;;;;3.58;2.42;;;;;;;23.44;47.21;97348.13;5043723;28;20048;-61
2022/06/19 06:43:13;;;;;;;2.58;2.38;;;;;;;23.43;46.35;97336.03;5044126;28;20061;-61
2022/06/19 06:45:40;;;;;;;2.78;2.50;;;;;;;23.90;47.08;97398.47;5042381;28;20052;-61
2022/06/19 06:48:07;;;;;;;2.72;2.35;;;;;;;23.42;46.89;97340.09;5042608;28;21011;-61
2022/06/19 06:50:34;;;;;;;2.78;2.55;;;;;;;23.89;46.34;97391.25;5042610;28;20056;-60
2022/06/19 06:53:01;;;;;;;2.67;2.45;;;;;;;23.96;44.79;97402.38;5043510;28;20060;-61
2022/06/19 06:55:27;;;;;;;2.70;2.50;;;;;;;23.98;43.65;97399.88;5059836;28;20056;-60
2022/06/19 06:57:54;;;;;;;3.38;2.40;;;;;;;22.42;44.81;97266.09;5047364;28;20385;-62
2022/06/19 07:00:23;;;;;;;3.25;2.30;;;;;;;23.49;43.99;97378.69;5047997;28;20045;-61
2022/06/19 07:02:51;;;;;;;2.88;2.45;;;;;;;23.64;44.78;97394.00;5046225;28;20136;-62
2022/06/19 07:05:17;;;;;;;2.90;2.47;;;;;;;23.03;44.66;97326.22;5046206;28;20060;-61
2022/06/19 07:07:44;;;;;;;2.95;2.65;;;;;;;23.07;45.28;97396.78;5047622;28;20435;-61
2022/06/19 07:10:11;;;;;;;2.97;2.67;;;;;;;22.83;46.44;97330.41;5047407;28;20527;-62
2022/06/19 07:12:47;;;;;;;2.40;2.22;;;;;;;23.36;44.84;97380.69;5046272;28;20057;-62
2022/06/19 07:15:14;;;;;;;3.67;2.05;;;;;;;23.75;43.70;97383.97;5047264;28;20057;-62
2022/06/19 07:17:40;;;;;;;2.50;2.30;;;;;;;23.80;44.09;97382.63;5047619;28;20056;-61
2022/06/19 07:20:08;;;;;;;3.67;2.55;;;;;;;22.95;45.43;97244.94;5046987;28;20049;-61
2022/06/19 07:22:35;;;;;;;2.25;2.05;;;;;;;24.15;44.93;97392.13;5047308;28;20091;-61
2022/06/19 07:25:04;;;;;;;2.55;1.92;;;;;;;23.71;42.35;97357.03;5045747;28;20060;-62
2022/06/19 07:27:30;;;;;;;2.53;2.00;;;;;;;23.49;43.74;97395.66;5046837;28;20056;-61
2022/06/19 07:29:57;;;;;;;2.90;2.70;;;;;;;23.68;43.13;97392.66;5047017;28;20061;-62
2022/06/19 07:32:24;;;;;;;5.43;3.22;;;;;;;23.55;43.72;97331.66;5046993;28;20114;-61
2022/06/19 07:34:50;;;;;;;3.38;2.47;;;;;;;23.93;43.88;97366.47;5046874;28;20063;-62
2022/06/19 07:37:17;;;;;;;3.10;2.80;;;;;;;24.31;42.65;97398.44;5047171;28;20407;-61
2022/06/19 07:39:44;;;;;;;4.05;2.95;;;;;;;24.11;42.71;97380.88;5045364;28;20056;-61
2022/06/19 07:42:11;;;;;;;4.25;2.70;;;;;;;24.24;42.00;97373.19;5045341;28;20057;-62
2022/06/19 07:44:40;;;;;;;3.20;2.13;;;;;;;24.17;39.92;97396.06;5045121;28;20049;-61
2022/06/19 07:50:09;;;;;;;12.68;5.18;;;;;;;24.01;41.00;97413.16;5047185;28;20056;-61
2022/06/19 07:52:41;;;;;;;20.75;6.72;;;;;;;23.91;41.38;97388.75;5045670;28;20500;-62
2022/06/19 07:55:09;;;;;;;5.28;3.25;;;;;;;23.73;41.79;97394.13;5045542;28;20052;-61
2022/06/19 07:57:37;;;;;;;6.85;2.90;;;;;;;23.46;40.85;97351.28;5045429;28;20443;-62
2022/06/19 08:00:07;;;;;;;10.70;5.20;;;;;;;24.15;39.93;97398.56;5045644;28;20048;-61
2022/06/19 08:02:33;;;;;;;6.43;3.10;;;;;;;23.99;40.36;97401.50;5046904;28;20052;-63
2022/06/19 08:05:01;;;;;;;9.10;3.75;;;;;;;24.24;40.52;97393.03;5046489;28;20064;-62
2022/06/19 08:07:28;;;;;;;6.05;3.03;;;;;;;23.60;40.80;97328.28;5045568;28;20076;-61
2022/06/19 08:09:55;;;;;;;13.77;6.50;;;;;;;23.45;40.86;97329.91;5046805;28;20056;-60
2022/06/19 08:12:22;;;;;;;10.73;4.88;;;;;;;24.20;40.10;97332.88;5045288;28;20052;-60
2022/06/19 08:14:49;;;;;;;10.45;5.07;;;;;;;24.89;39.47;97374.31;5044979;28;20053;-61
2022/06/19 08:17:15;;;;;;;9.23;3.97;;;;;;;24.41;39.51;97365.38;5044918;28;20127;-61
2022/06/19 08:19:43;;;;;;;11.85;4.32;;;;;;;24.25;39.85;97386.09;5046285;28;20317;-62
2022/06/19 08:22:10;;;;;;;5.13;3.22;;;;;;;24.25;40.25;97391.00;5061184;28;20049;-62
2022/06/19 08:24:37;;;;;;;5.78;3.35;;;;;;;24.11;39.59;97383.72;5044676;28;20092;-62
2022/06/19 08:29:31;;;;;;;22.83;8.65;;;;;;;24.48;39.72;97388.63;5045587;28;20057;-62
2022/06/19 08:31:58;;;;;;;4.88;3.63;;;;;;;24.51;38.83;97376.38;5046055;28;20061;-63
2022/06/19 08:34:26;;;;;;;2.40;2.20;;;;;;;24.14;39.02;97396.97;5045904;28;20060;-60
2022/06/19 08:36:54;;;;;;;3.53;3.20;;;;;;;24.08;39.03;97319.50;5045919;28;20049;-60
2022/06/19 08:39:21;;;;;;;2.80;2.45;;;;;;;24.56;38.61;97367.31;5028349;28;20057;-59
2022/06/19 08:42:11;;;;;;;2.72;2.53;;;;;;;25.04;39.15;97377.44;5044327;28;20519;-61
2022/06/19 08:44:55;;;;;;;10.60;6.00;;;;;;;25.48;38.71;97364.97;5044715;28;20049;-62
2022/06/19 08:47:25;;;;;;;5.28;2.30;;;;;;;25.51;39.16;97374.56;5046004;28;20139;-59
2022/06/19 08:50:20;;;;;;;2.42;2.22;;;;;;;25.56;39.25;97371.16;5044540;28;20049;-62
2022/06/19 08:53:17;;;;;;;2.28;2.10;;;;;;;25.43;39.77;97373.25;5044178;28;20061;-59
2022/06/19 08:56:02;;;;;;;2.90;2.15;;;;;;;25.37;38.98;97378.72;5044176;28;20041;-60
2022/06/19 08:58:36;;;;;;;3.17;2.92;;;;;;;25.89;38.47;97372.34;5045404;28;20057;-60
2022/06/19 09:01:21;;;;;;;2.60;2.50;;;;;;;25.37;39.32;97363.75;5043865;28;20135;-62
2022/06/19 09:07:17;;;;;;;2.90;2.45;;;;;;;25.70;39.33;97364.94;5044880;28;20064;-62
2022/06/19 09:10:13;;;;;;;3.58;2.50;;;;;;;25.40;38.06;97368.50;5045230;28;20087;-63
2022/06/19 09:12:55;;;;;;;4.70;2.78;;;;;;;25.78;38.50;97371.94;5048707;28;20045;-61
2022/06/19 09:16:01;;;;;;;2.50;2.25;;;;;;;26.13;38.92;97364.94;5044894;28;20577;-61
2022/06/19 09:18:55;;;;;;;2.88;2.58;;;;;;;26.34;38.74;97355.53;5042126;28;20086;-62
2022/06/19 09:21:51;;;;;;;3.20;3.00;;;;;;;26.05;39.31;97352.28;5044969;28;20132;-61
2022/06/19 09:24:26;;;;;;;3.25;2.85;;;;;;;25.92;38.71;97365.72;5044618;28;20056;-60
2022/06/19 09:26:58;;;;;;;3.17;2.88;;;;;;;25.75;38.43;97350.16;5043222;28;20053;-61
2022/06/19 09:29:38;;;;;;;3.10;2.90;;;;;;;25.28;39.67;97350.25;5043651;28;20075;-61
2022/06/19 09:32:13;;;;;;;2.65;2.45;;;;;;;25.50;38.82;97362.44;5044944;28;20177;-61
2022/06/19 09:35:00;;;;;;;2.38;2.28;;;;;;;25.51;39.29;97355.53;5045004;28;20132;-61
2022/06/19 09:37:36;;;;;;;2.80;2.53;;;;;;;25.72;39.75;97351.09;5059832;28;20435;-60
2022/06/19 09:40:21;;;;;;;2.80;2.47;;;;;;;25.14;39.94;97365.75;5044463;28;20547;-61
2022/06/19 09:43:04;;;;;;;2.40;2.30;;;;;;;25.18;38.64;97357.09;5044799;28;20057;-60
2022/06/19 09:45:57;;;;;;;2.40;2.30;;;;;;;25.56;38.21;97345.63;5044796;28;20064;-62
2022/06/19 09:48:46;;;;;;;3.33;3.03;;;;;;;25.75;38.45;97339.59;5059538;28;20055;-62
2022/06/19 09:51:21;;;;;;;2.70;2.50;;;;;;;26.30;37.45;97340.72;5044415;28;20053;-61
2022/06/19 09:53:55;;;;;;;3.05;2.85;;;;;;;25.49;37.91;97348.69;5042898;28;20052;-62
2022/06/19 09:56:59;;;;;;;3.20;2.90;;;;;;;26.11;38.10;97344.72;5044298;28;20057;-61
2022/06/19 09:59:37;;;;;;;2.85;2.65;;;;;;;26.31;36.58;97302.50;5042566;28;20068;-61
2022/06/19 10:02:21;;;;;;;3.28;2.97;;;;;;;25.66;35.17;97257.22;5043859;28;20050;-61
2022/06/19 10:04:55;;;;;;;3.00;2.67;;;;;;;26.32;36.83;97332.53;5042833;28;20452;-60
2022/06/19 10:07:35;;;;;;;3.05;2.78;;;;;;;26.87;36.35;97328.59;5042840;28;20067;-62
2022/06/19 10:10:23;;;;;;;2.65;2.45;;;;;;;26.49;37.02;97336.69;5044282;28;20585;-61
2022/06/19 10:12:53;;;;;;;3.17;2.50;;;;;;;26.56;34.98;97336.38;5042795;28;20510;-62
2022/06/19 10:15:31;;;;;;;2.70;2.50;;;;;;;25.79;36.45;97333.78;5044332;28;20126;-62
2022/06/19 10:18:30;;;;;;;3.45;2.90;;;;;;;25.95;36.99;97327.88;5043041;28;20049;-62
2022/06/19 10:22:13;;;;;;;2.55;2.40;;;;;;;25.61;37.24;97328.00;5024130;28;20151;-61
2022/06/19 10:24:07;;;;;;;;;;;;;;;26.04;36.88;97317.38;5024979;28;20057;-62
2022/06/19 10:26:49;;;;;;;3.90;2.70;;;;;;;26.27;36.56;97330.28;5024441;28;19936;-62
2022/06/19 10:29:35;;;;;;;2.75;2.53;;;;;;;25.61;35.69;97322.31;5022811;28;20444;-60
2022/06/19 10:32:21;;;;;;;3.30;2.80;;;;;;;26.18;36.19;97327.38;5022530;28;20065;-63
2022/06/19 10:35:09;;;;;;;2.83;2.60;;;;;;;25.91;34.68;97330.09;5024300;28;20100;-60
2022/06/19 10:38:27;;;;;;;4.20;3.20;;;;;;;25.89;35.59;97326.91;5023830;28;20061;-61
2022/06/19 10:41:07;;;;;;;2.70;2.50;;;;;;;26.45;35.62;97318.97;5022962;28;20060;-60
2022/06/19 10:44:14;;;;;;;2.80;2.60;;;;;;;25.61;35.68;97208.81;5022314;28;20523;-61
2022/06/19 10:46:42;;;;;;;3.65;3.35;;;;;;;26.67;34.94;97302.63;5038059;28;20057;-60
2022/06/19 10:49:34;;;;;;;2.50;2.30;;;;;;;25.83;35.27;97164.13;5038951;28;20045;-61
2022/06/19 10:52:20;;;;;;;2.35;2.25;;;;;;;25.72;35.94;97297.94;5039095;28;20053;-61
2022/06/19 10:55:05;;;;;;;3.55;2.63;;;;;;;26.06;35.55;97302.72;5024285;28;20053;-61
2022/06/19 10:57:35;;;;;;;3.95;2.70;;;;;;;26.17;35.25;97291.72;5039022;28;20342;-62
2022/06/19 11:00:04;;;;;;;2.83;2.60;;;;;;;26.50;35.24;97287.09;5023886;28;20084;-63
2022/06/19 11:05:30;;;;;;;2.50;2.30;;;;;;;26.28;34.76;97292.09;5023595;28;20061;-60
2022/06/19 11:07:57;;;;;;;4.38;3.05;;;;;;;26.75;33.96;97286.84;5023947;28;20057;-60
2022/06/19 11:10:42;;;;;;;3.97;3.67;;;;;;;26.88;34.73;97273.28;5024050;28;20156;-61
2022/06/19 11:13:11;;;;;;;3.15;2.95;;;;;;;27.26;33.37;97276.50;5023670;28;20099;-60
2022/06/19 11:15:44;;;;;;;2.88;2.70;;;;;;;26.53;32.96;97252.06;5023817;28;20049;-61
2022/06/19 11:18:14;;;;;;;3.17;2.88;;;;;;;26.64;32.46;97292.22;5024821;28;20053;-60
2022/06/19 11:20:57;;;;;;;4.70;3.20;;;;;;;26.61;33.16;97220.03;5043929;28;20468;-60
2022/06/19 11:23:32;;;;;;;3.35;3.13;;;;;;;27.41;32.63;97283.09;5042308;28;20511;-61
2022/06/19 11:26:12;;;;;;;4.00;3.58;;;;;;;26.76;32.60;97254.34;5042085;28;20504;-61
2022/06/19 11:28:55;;;;;;;6.57;4.30;;;;;;;27.47;31.48;97269.84;5043751;28;20049;-62
2022/06/19 11:31:29;;;;;;;3.13;2.83;;;;;;;27.58;32.63;97292.91;5043375;28;20322;-61
2022/06/19 11:37:29;;;;;;;2.58;2.47;;;;;;;28.01;32.44;97289.63;5043656;28;20072;-61
2022/06/19 11:39:58;;;;;;;4.15;3.30;;;;;;;27.91;33.94;97290.16;5043909;28;20053;-62
2022/06/19 11:42:34;;;;;;;3.85;3.30;;;;;;;27.82;34.25;97284.47;5044429;28;20088;-62
2022/06/19 11:45:13;;;;;;;3.10;2.80;;;;;;;27.09;35.68;97300.81;5045878;28;20041;-62
2022/06/19 11:47:42;;;;;;;3.30;2.90;;;;;;;27.00;35.14;97286.56;5047316;28;20765;-61
2022/06/19 11:50:18;;;;;;;4.90;3.28;;;;;;;27.36;34.71;97286.59;5045870;28;20060;-61
2022/06/19 11:52:52;;;;;;;3.42;3.13;;;;;;;26.68;36.56;97281.50;5045513;28;20060;-62
2022/06/19 11:55:27;;;;;;;3.35;3.05;;;;;;;26.80;34.89;97276.91;5062265;28;20080;-61
2022/06/19 11:58:12;;;;;;;3.83;3.45;;;;;;;27.23;35.34;97265.22;5046534;28;20056;-63
2022/06/19 12:00:40;;;;;;;3.70;3.40;;;;;;;27.86;34.57;97263.09;5046621;28;20063;-61
2022/06/19 12:03:20;;;;;;;2.92;2.72;;;;;;;27.24;34.65;97233.47;5061631;28;20061;-60
2022/06/19 12:05:55;;;;;;;3.20;3.00;;;;;;;27.08;34.26;97236.63;5046543;28;20096;-61
2022/06/19 12:08:26;;;;;;;3.05;2.85;;;;;;;27.92;33.42;97255.50;5045086;28;20084;-63
2022/06/19 12:10:56;;;;;;;2.90;2.70;;;;;;;27.80;32.61;97253.63;5046405;28;20049;-61
2022/06/19 12:13:28;;;;;;;3.15;2.95;;;;;;;27.87;33.46;97253.25;5045334;28;21173;-60